Time;durP1;ratioP1;P1;durP2;ratioP2;P2;SDS_P1;SDS_P2;PMS_P1;PMS_P2;Temp;Humidity;BMP_temperature;BMP_pressure;BME280_temperature;BME280_humidity;BME280_pressure;Samples;Min_cycle;Max_cycle;Signal;HPM_P1;HPM_P2
2022/01/18 00:00:04;;;;;;;27.55;25.60;;;6.10;92.00;;;;;;5035245;28;20224;-72
2022/01/18 00:02:32;;;;;;;26.25;24.15;;;6.20;92.70;;;;;;5035187;28;20201;-72
2022/01/18 00:04:59;;;;;;;25.95;23.95;;;6.20;91.50;;;;;;5035395;28;20685;-72
2022/01/18 00:07:26;;;;;;;27.02;25.08;;;6.20;90.30;;;;;;5035198;28;20312;-72
2022/01/18 00:09:53;;;;;;;27.45;25.25;;;6.20;90.00;;;;;;5035071;28;20252;-71
2022/01/18 00:15:29;;;;;;;25.73;23.92;;;6.00;90.80;;;;;;5035267;28;20192;-72
2022/01/18 00:18:07;;;;;;;27.02;25.08;;;5.90;91.40;;;;;;5035145;28;20232;-72
2022/01/18 00:20:51;;;;;;;27.13;25.02;;;6.00;91.20;;;;;;5034854;28;20221;-72
2022/01/18 00:23:18;;;;;;;24.92;23.02;;;6.00;91.20;;;;;;5035177;28;20293;-72
2022/01/18 00:25:48;;;;;;;25.35;23.45;;;5.90;91.10;;;;;;5034764;28;20217;-72
2022/01/18 00:28:15;;;;;;;25.25;23.45;;;5.90;91.50;;;;;;5034972;28;20209;-72
2022/01/18 00:31:12;;;;;;;25.98;23.98;;;5.90;91.90;;;;;;5034685;28;20225;-72
2022/01/18 00:33:51;;;;;;;26.48;24.48;;;5.90;91.80;;;;;;5034965;28;20202;-72
2022/01/18 00:36:35;;;;;;;25.65;23.75;;;5.90;91.70;;;;;;5034837;28;20194;-72
2022/01/18 00:39:04;;;;;;;68.35;28.20;;;6.00;91.90;;;;;;5034662;28;20605;-72
2022/01/18 00:41:31;;;;;;;27.15;25.05;;;6.00;92.80;;;;;;5034767;28;20204;-72
2022/01/18 00:43:59;;;;;;;27.42;24.98;;;6.00;95.20;;;;;;5034806;28;20229;-72
2022/01/18 00:46:26;;;;;;;27.13;24.92;;;6.00;95.90;;;;;;5034528;28;20221;-72
2022/01/18 00:48:56;;;;;;;26.23;23.98;;;6.00;95.90;;;;;;5034406;28;20209;-72
2022/01/18 00:51:24;;;;;;;26.52;24.42;;;6.00;94.90;;;;;;5034408;28;20224;-72
2022/01/18 00:53:51;;;;;;;27.42;25.30;;;6.00;94.20;;;;;;5034425;28;20204;-72
2022/01/18 00:56:24;;;;;;;26.80;24.85;;;5.90;94.00;;;;;;5034556;28;20197;-72
2022/01/18 00:58:53;;;;;;;25.73;23.88;;;6.00;93.20;;;;;;5033992;28;20232;-72
2022/01/18 01:01:22;;;;;;;26.50;24.58;;;6.10;92.90;;;;;;5034185;28;20312;-72
2022/01/18 01:03:51;;;;;;;26.20;24.13;;;6.10;92.60;;;;;;5033781;28;20193;-72
2022/01/18 01:06:19;;;;;;;41.72;26.45;;;6.20;92.30;;;;;;5034154;28;20223;-72
2022/01/18 01:08:46;;;;;;;26.67;24.67;;;6.10;94.00;;;;;;5034144;28;20203;-72
2022/01/18 01:11:13;;;;;;;27.73;25.63;;;6.10;94.30;;;;;;5034023;28;20228;-72
2022/01/18 01:13:46;;;;;;;26.40;24.30;;;6.10;94.10;;;;;;5034085;28;20618;-72
2022/01/18 01:16:34;;;;;;;26.25;24.30;;;6.20;93.50;;;;;;5034063;28;20610;-72
2022/01/18 01:19:19;;;;;;;26.60;24.65;;;6.20;92.80;;;;;;5034051;28;20208;-72
2022/01/18 01:35:48;;;;;;;26.88;24.83;;;6.10;91.70;;;;;;4960011;28;20188;-72
2022/01/18 01:44:04;;;;;;;28.17;25.98;;;6.10;92.80;;;;;;4986344;28;20193;-72
2022/01/18 01:46:32;;;;;;;27.77;25.67;;;6.10;92.50;;;;;;5033498;28;20732;-72
2022/01/18 01:49:01;;;;;;;27.50;25.30;;;6.10;92.50;;;;;;5033386;28;20563;-72
2022/01/18 01:51:30;;;;;;;27.83;25.73;;;6.10;92.40;;;;;;5033168;28;20563;-72
2022/01/18 01:54:00;;;;;;;27.20;25.13;;;6.10;92.30;;;;;;5033515;28;20251;-72
2022/01/18 01:56:27;;;;;;;26.77;24.70;;;6.10;92.10;;;;;;5033464;28;20204;-72
2022/01/18 01:58:54;;;;;;;38.42;28.63;;;6.10;92.50;;;;;;5032875;28;20288;-72
2022/01/18 02:01:21;;;;;;;29.85;27.35;;;6.20;92.40;;;;;;5032954;28;20213;-72
2022/01/18 02:03:48;;;;;;;29.33;26.58;;;6.20;92.80;;;;;;5032951;28;20203;-72
2022/01/18 02:06:16;;;;;;;77.82;31.17;;;6.10;92.30;;;;;;5033111;28;20291;-72
2022/01/18 02:08:43;;;;;;;43.58;28.80;;;6.10;93.70;;;;;;5033052;28;20205;-72
2022/01/18 02:11:12;;;;;;;30.02;27.38;;;6.20;93.30;;;;;;5032867;28;20598;-72
2022/01/18 02:13:40;;;;;;;29.45;27.15;;;6.30;91.90;;;;;;5033110;28;20205;-72
2022/01/18 02:16:16;;;;;;;30.65;27.88;;;6.30;90.50;;;;;;5032300;28;20681;-72
2022/01/18 02:21:47;;;;;;;30.45;27.70;;;6.10;90.40;;;;;;5032914;28;20196;-72
2022/01/18 02:24:17;;;;;;;31.83;29.10;;;6.00;91.20;;;;;;5032872;28;20197;-72
2022/01/18 02:26:44;;;;;;;472.75;68.38;;;6.10;91.30;;;;;;5032792;28;20308;-72
2022/01/18 02:29:12;;;;;;;30.30;27.50;;;6.10;93.90;;;;;;5032640;28;20641;-72
2022/01/18 02:31:39;;;;;;;31.42;28.52;;;6.10;93.60;;;;;;5032779;28;20193;-72
2022/01/18 02:34:09;;;;;;;31.83;29.13;;;6.20;92.60;;;;;;5032602;28;20667;-72
2022/01/18 02:36:39;;;;;;;31.13;28.45;;;6.30;91.80;;;;;;5032717;28;20193;-72
2022/01/18 02:39:07;;;;;;;30.67;28.08;;;6.20;90.90;;;;;;5032404;28;20698;-72
2022/01/18 02:41:35;;;;;;;29.85;27.60;;;6.10;90.40;;;;;;5032599;28;20197;-72
2022/01/18 02:44:04;;;;;;;30.48;27.88;;;6.00;90.70;;;;;;5032683;28;20206;-72
2022/01/18 02:46:31;;;;;;;30.88;28.20;;;6.00;91.00;;;;;;5032765;28;20308;-72
2022/01/18 02:49:00;;;;;;;29.77;27.17;;;6.10;90.80;;;;;;5032573;28;20240;-72
2022/01/18 02:51:27;;;;;;;31.88;29.25;;;6.10;90.70;;;;;;5032459;28;20197;-72
2022/01/18 02:54:01;;;;;;;30.38;27.45;;;6.10;90.80;;;;;;5032497;28;20681;-72
2022/01/18 02:56:29;;;;;;;30.80;28.00;;;6.00;90.60;;;;;;5032579;28;20200;-72
2022/01/18 02:59:06;;;;;;;29.20;26.90;;;5.90;90.70;;;;;;5032132;28;20194;-72
2022/01/18 03:04:17;;;;;;;29.58;26.92;;;6.00;90.00;;;;;;5032319;28;20571;-72
2022/01/18 03:06:44;;;;;;;32.42;29.52;;;6.00;90.00;;;;;;5032329;28;20223;-72
2022/01/18 03:09:12;;;;;;;31.65;28.98;;;5.90;90.70;;;;;;5032094;28;20202;-72
2022/01/18 03:11:39;;;;;;;32.25;29.40;;;5.80;90.90;;;;;;5032358;28;20197;-72
2022/01/18 03:14:06;;;;;;;31.00;28.25;;;5.80;91.00;;;;;;5032421;28;20197;-72
2022/01/18 03:16:34;;;;;;;31.83;29.13;;;5.90;91.20;;;;;;5032178;28;20190;-72
2022/01/18 03:19:00;;;;;;;33.28;30.27;;;6.00;90.80;;;;;;5032159;28;20626;-72
2022/01/18 03:21:27;;;;;;;31.33;28.23;;;6.10;90.20;;;;;;5032123;28;20200;-72
2022/01/18 03:24:10;;;;;;;32.63;29.60;;;5.90;90.40;;;;;;5032132;28;20226;-72
2022/01/18 03:28:04;;;;;;;31.98;29.27;;;6.00;90.00;;;;;;5033722;28;20622;-72
2022/01/18 03:29:25;;;;;;;30.05;27.45;;;5.90;90.50;;;;;;5035602;28;20579;-71
2022/01/18 03:31:52;;;;;;;31.05;28.33;;;5.90;90.90;;;;;;5036032;28;20251;-72
2022/01/18 03:34:19;;;;;;;30.60;28.00;;;5.90;91.10;;;;;;5036039;28;20225;-72
2022/01/18 03:36:46;;;;;;;32.28;29.38;;;5.80;92.00;;;;;;5035904;28;20200;-72
2022/01/18 03:39:13;;;;;;;36.17;32.97;;;5.90;91.50;;;;;;5035664;28;20197;-72
2022/01/18 03:41:41;;;;;;;30.95;28.45;;;5.80;91.50;;;;;;5035863;28;20666;-72
2022/01/18 03:44:08;;;;;;;33.80;30.75;;;5.80;91.70;;;;;;5035860;28;20233;-72
2022/01/18 03:46:37;;;;;;;38.17;30.55;;;5.90;91.70;;;;;;5035675;28;20217;-72
2022/01/18 03:49:05;;;;;;;42.30;33.25;;;5.90;92.30;;;;;;5035549;28;20277;-72
2022/01/18 03:51:33;;;;;;;33.00;29.77;;;5.90;92.60;;;;;;5035475;28;20199;-72
2022/01/18 03:53:59;;;;;;;32.67;29.48;;;5.90;92.80;;;;;;5035786;28;20201;-72
2022/01/18 03:56:26;;;;;;;33.00;29.95;;;5.90;93.20;;;;;;5035555;28;20280;-72
2022/01/18 03:58:55;;;;;;;33.90;30.77;;;5.90;92.30;;;;;;5035173;28;20197;-72
2022/01/18 04:01:21;;;;;;;35.05;32.05;;;5.90;91.80;;;;;;5035437;28;20225;-72
2022/01/18 04:03:48;;;;;;;33.47;30.63;;;6.00;91.70;;;;;;5035249;28;20570;-72
2022/01/18 04:06:15;;;;;;;35.70;32.72;;;6.10;91.80;;;;;;5035382;28;20201;-72
2022/01/18 04:08:42;;;;;;;32.15;29.35;;;6.20;90.60;;;;;;5035278;28;20368;-72
2022/01/18 04:11:09;;;;;;;33.60;30.65;;;6.10;90.20;;;;;;5035145;28;20225;-72
2022/01/18 04:13:36;;;;;;;34.90;31.77;;;6.00;90.50;;;;;;5035450;28;20392;-72
2022/01/18 04:16:05;;;;;;;34.22;31.02;;;6.00;90.80;;;;;;5035201;28;20288;-72
2022/01/18 04:18:45;;;;;;;35.88;32.55;;;6.10;90.30;;;;;;5035125;28;20746;-72
2022/01/18 04:27:01;;;;;;;36.38;32.92;;;5.90;91.90;;;;;;5035103;28;20618;-72
2022/01/18 04:29:27;;;;;;;34.60;31.65;;;5.90;92.10;;;;;;5034644;28;20761;-71
2022/01/18 04:31:56;;;;;;;35.85;32.80;;;6.00;91.40;;;;;;5034907;28;20197;-72
2022/01/18 04:34:23;;;;;;;35.85;32.63;;;6.00;91.00;;;;;;5034857;28;20634;-72
2022/01/18 04:36:50;;;;;;;34.55;31.30;;;5.90;90.70;;;;;;5034923;28;20737;-72
2022/01/18 04:39:17;;;;;;;34.55;31.40;;;5.90;90.90;;;;;;5033906;28;20200;-71
2022/01/18 04:41:46;;;;;;;35.38;32.22;;;5.80;90.90;;;;;;5034799;28;20649;-72
2022/01/18 04:49:41;;;;;;;34.95;31.70;;;5.80;91.40;;;;;;5034490;28;20259;-72
2022/01/18 04:52:10;;;;;;;36.50;33.40;;;5.90;90.80;;;;;;5034445;28;20205;-72
2022/01/18 04:54:41;;;;;;;36.10;32.85;;;5.80;91.30;;;;;;5034548;28;20571;-72
2022/01/18 04:59:53;;;;;;;37.80;34.13;;;5.80;91.20;;;;;;5034157;28;20336;-71
2022/01/18 05:02:21;;;;;;;36.05;32.45;;;5.70;91.40;;;;;;5034399;28;20205;-72
2022/01/18 05:04:50;;;;;;;36.25;32.85;;;5.70;91.40;;;;;;5034321;28;20677;-72
2022/01/18 05:07:18;;;;;;;35.90;32.88;;;5.60;91.60;;;;;;5034231;28;20232;-72
2022/01/18 05:09:49;;;;;;;37.38;33.83;;;5.70;91.70;;;;;;5034023;28;20702;-71
2022/01/18 05:12:25;;;;;;;36.53;33.05;;;5.70;91.90;;;;;;5034387;28;20274;-72
2022/01/18 05:14:53;;;;;;;35.63;32.13;;;5.80;91.80;;;;;;5034237;28;20208;-72
2022/01/18 05:17:39;;;;;;;38.25;34.30;;;5.70;90.90;;;;;;5034092;28;20244;-72
2022/01/18 05:20:37;;;;;;;37.60;34.08;;;5.70;91.30;;;;;;5033849;28;20229;-72
2022/01/18 05:23:04;;;;;;;35.58;32.38;;;5.70;91.70;;;;;;5034052;28;20202;-72
2022/01/18 05:25:31;;;;;;;36.58;33.08;;;5.60;91.70;;;;;;5033854;28;20225;-72
2022/01/18 05:27:58;;;;;;;38.83;35.20;;;5.70;91.90;;;;;;5033841;28;20221;-72
2022/01/18 05:30:25;;;;;;;38.67;35.08;;;5.80;91.20;;;;;;5033570;28;20595;-71
2022/01/18 05:32:54;;;;;;;37.53;34.08;;;5.80;91.00;;;;;;5033995;28;20201;-72
2022/01/18 05:35:21;;;;;;;36.00;32.42;;;5.70;91.10;;;;;;5033783;28;20558;-72
2022/01/18 05:37:48;;;;;;;38.08;34.17;;;5.50;91.40;;;;;;5033631;28;20284;-72
2022/01/18 05:40:16;;;;;;;38.58;34.88;;;5.60;91.80;;;;;;5033231;28;20213;-72
2022/01/18 05:42:43;;;;;;;39.83;33.30;;;5.60;91.80;;;;;;5033553;28;20203;-72
2022/01/18 05:45:11;;;;;;;38.20;34.78;;;5.50;91.80;;;;;;5033537;28;20231;-72
2022/01/18 05:47:38;;;;;;;37.35;33.67;;;5.40;92.40;;;;;;5033451;28;20217;-72
2022/01/18 05:50:09;;;;;;;37.92;34.22;;;5.30;92.90;;;;;;5032228;28;20308;-72
2022/01/18 05:52:36;;;;;;;39.88;35.83;;;5.30;93.00;;;;;;5033255;28;20241;-72
2022/01/18 05:55:05;;;;;;;38.38;34.40;;;5.20;92.90;;;;;;5033232;28;20235;-72
2022/01/18 05:57:32;;;;;;;40.05;35.90;;;5.20;92.90;;;;;;5033206;28;20193;-72
2022/01/18 06:00:04;;;;;;;39.08;34.88;;;5.00;93.40;;;;;;5032743;28;20695;-72
2022/01/18 06:02:41;;;;;;;38.65;35.08;;;5.10;93.50;;;;;;5033245;28;20721;-72
2022/01/18 06:07:54;;;;;;;36.83;33.03;;;5.30;92.90;;;;;;5033176;28;20355;-72
2022/01/18 06:10:21;;;;;;;38.25;34.58;;;5.30;92.70;;;;;;5032805;28;20224;-72
2022/01/18 06:12:48;;;;;;;37.40;33.97;;;5.30;92.80;;;;;;5033046;28;20205;-72
2022/01/18 06:15:16;;;;;;;38.95;35.05;;;5.40;92.30;;;;;;5033056;28;20207;-72
2022/01/18 06:17:43;;;;;;;40.67;36.80;;;5.40;92.30;;;;;;5032999;28;20199;-72
2022/01/18 06:20:12;;;;;;;37.33;33.58;;;5.40;92.20;;;;;;5032691;28;20213;-72
2022/01/18 06:22:39;;;;;;;35.55;31.90;;;5.50;91.20;;;;;;5032909;28;20197;-72
2022/01/18 06:25:08;;;;;;;40.17;35.05;;;5.50;91.50;;;;;;5032803;28;20666;-72
2022/01/18 06:27:35;;;;;;;37.80;33.80;;;5.60;91.60;;;;;;5032708;28;20326;-72
2022/01/18 06:30:04;;;;;;;37.50;33.72;;;5.50;91.30;;;;;;5032476;28;20308;-72
2022/01/18 06:32:31;;;;;;;37.65;34.13;;;5.50;91.30;;;;;;5032804;28;20229;-72
2022/01/18 06:34:58;;;;;;;34.92;31.63;;;5.60;91.10;;;;;;5032694;28;20288;-72
2022/01/18 06:37:26;;;;;;;37.05;33.63;;;5.50;91.20;;;;;;5032711;28;20280;-72
2022/01/18 06:39:53;;;;;;;36.78;33.38;;;5.50;91.70;;;;;;5032310;28;20571;-72
2022/01/18 06:42:21;;;;;;;39.17;35.40;;;5.40;91.60;;;;;;5032854;28;20194;-72
2022/01/18 06:44:48;;;;;;;37.78;34.30;;;5.30;91.80;;;;;;5032473;28;20197;-72
2022/01/18 06:47:14;;;;;;;39.85;36.05;;;5.40;92.00;;;;;;5032404;28;20288;-71
2022/01/18 06:49:41;;;;;;;40.15;35.88;;;5.40;92.10;;;;;;5032369;28;20308;-71
2022/01/18 06:52:08;;;;;;;37.83;34.22;;;5.40;92.00;;;;;;5032368;28;20215;-71
2022/01/18 06:54:37;;;;;;;39.45;35.65;;;5.40;92.60;;;;;;5032518;28;20284;-71
2022/01/18 06:57:04;;;;;;;40.55;36.75;;;5.30;92.40;;;;;;5032412;28;20193;-72
2022/01/18 06:59:34;;;;;;;38.47;34.58;;;5.30;92.10;;;;;;5031834;28;20211;-72
2022/01/18 07:02:01;;;;;;;40.75;36.65;;;5.30;92.30;;;;;;5034799;28;20738;-72
2022/01/18 07:04:28;;;;;;;40.78;36.67;;;5.30;92.90;;;;;;5036389;28;20200;-72
2022/01/18 07:06:55;;;;;;;39.92;35.92;;;5.30;93.20;;;;;;5036473;28;20284;-71
2022/01/18 07:09:23;;;;;;;40.13;36.15;;;5.20;93.20;;;;;;5036500;28;20225;-72
2022/01/18 07:11:51;;;;;;;37.90;34.38;;;5.30;92.70;;;;;;5036410;28;20201;-72
2022/01/18 07:14:18;;;;;;;39.10;35.15;;;5.30;92.60;;;;;;5036306;28;20292;-71
2022/01/18 07:16:45;;;;;;;39.97;36.17;;;5.40;91.90;;;;;;5036251;28;20248;-72
2022/01/18 07:19:12;;;;;;;39.35;35.40;;;5.50;91.90;;;;;;5036081;28;20197;-72
2022/01/18 07:21:39;;;;;;;35.35;31.92;;;5.40;91.50;;;;;;5036224;28;20201;-72
2022/01/18 07:24:16;;;;;;;38.63;34.40;;;5.40;91.60;;;;;;5036096;28;20203;-72
2022/01/18 07:26:46;;;;;;;37.63;33.83;;;5.40;92.00;;;;;;5036332;28;20201;-72
2022/01/18 07:29:14;;;;;;;39.10;35.00;;;5.50;91.40;;;;;;5035794;28;20257;-72
2022/01/18 07:31:41;;;;;;;37.97;34.50;;;5.40;91.70;;;;;;5036045;28;20204;-72
2022/01/18 07:34:09;;;;;;;40.63;36.28;;;5.40;91.60;;;;;;5036069;28;20207;-72
2022/01/18 07:36:35;;;;;;;166.10;44.33;;;5.40;91.90;;;;;;5036038;28;20291;-72
2022/01/18 07:39:03;;;;;;;38.63;34.78;;;5.50;93.10;;;;;;5035582;28;20204;-72
2022/01/18 07:41:29;;;;;;;36.05;32.83;;;5.50;94.10;;;;;;5035724;28;20205;-72
2022/01/18 07:43:56;;;;;;;39.47;35.50;;;5.50;92.80;;;;;;5035847;28;20280;-72
2022/01/18 07:46:24;;;;;;;39.38;35.15;;;5.50;92.80;;;;;;5035787;28;20205;-72
2022/01/18 07:48:51;;;;;;;37.65;33.80;;;5.60;92.50;;;;;;5035545;28;20228;-72
2022/01/18 07:51:18;;;;;;;40.60;36.15;;;5.70;93.60;;;;;;5035498;28;20222;-72
2022/01/18 07:53:45;;;;;;;200.15;49.30;;;5.80;93.00;;;;;;5035455;28;20216;-72
2022/01/18 07:56:12;;;;;;;117.13;42.17;;;5.80;93.70;;;;;;5035617;28;20199;-72
2022/01/18 07:58:39;;;;;;;39.10;35.08;;;5.80;94.60;;;;;;5035277;28;20236;-72
2022/01/18 08:01:06;;;;;;;40.78;36.65;;;5.80;94.00;;;;;;5035243;28;20224;-72
2022/01/18 08:03:34;;;;;;;39.42;35.38;;;5.80;92.10;;;;;;5035342;28;20252;-72
2022/01/18 08:06:01;;;;;;;38.10;34.40;;;5.90;91.10;;;;;;5035357;28;20201;-72
2022/01/18 08:08:28;;;;;;;36.80;32.90;;;5.90;90.60;;;;;;5035124;28;20225;-72
2022/01/18 08:10:56;;;;;;;40.20;36.10;;;5.90;89.90;;;;;;5035077;28;20275;-72
2022/01/18 08:13:26;;;;;;;39.95;35.90;;;6.00;90.30;;;;;;5034176;28;20201;-72
2022/01/18 08:16:10;;;;;;;39.17;35.20;;;6.30;88.80;;;;;;5035480;28;20255;-72
2022/01/18 08:18:38;;;;;;;37.65;34.03;;;6.20;88.70;;;;;;5035123;28;20197;-72
2022/01/18 08:21:06;;;;;;;36.80;33.00;;;6.10;88.70;;;;;;5034713;28;20228;-72
2022/01/18 08:23:32;;;;;;;35.97;32.78;;;6.00;89.50;;;;;;5035049;28;20202;-72
2022/01/18 08:26:00;;;;;;;36.90;33.78;;;6.10;88.00;;;;;;5035076;28;20203;-72
2022/01/18 08:28:27;;;;;;;38.28;34.53;;;6.10;87.90;;;;;;5034851;28;20224;-72
2022/01/18 08:30:54;;;;;;;36.50;33.42;;;6.00;87.40;;;;;;5034697;28;20246;-72
2022/01/18 08:33:21;;;;;;;36.13;32.65;;;6.00;87.70;;;;;;5034788;28;20726;-72
2022/01/18 08:35:49;;;;;;;35.88;32.47;;;6.10;87.90;;;;;;5034747;28;20677;-72
2022/01/18 08:38:16;;;;;;;36.30;32.72;;;6.20;87.30;;;;;;5034790;28;20200;-72
2022/01/18 08:40:43;;;;;;;37.03;33.72;;;6.20;87.20;;;;;;5034574;28;20251;-72
2022/01/18 08:43:10;;;;;;;36.05;32.35;;;6.10;87.80;;;;;;5034697;28;20201;-72
2022/01/18 08:45:36;;;;;;;38.92;35.13;;;6.00;87.30;;;;;;5034676;28;20558;-73
2022/01/18 08:48:04;;;;;;;35.45;32.33;;;6.00;87.40;;;;;;5034538;28;20221;-73
2022/01/18 08:50:31;;;;;;;37.22;33.80;;;6.20;86.80;;;;;;5034512;28;20217;-73
2022/01/18 08:52:59;;;;;;;36.10;32.75;;;6.20;86.70;;;;;;5034516;28;20212;-73
2022/01/18 08:55:26;;;;;;;37.78;34.22;;;6.30;86.20;;;;;;5034353;28;20550;-73
2022/01/18 08:57:53;;;;;;;35.50;32.40;;;6.40;86.10;;;;;;5034320;28;20204;-73
2022/01/18 09:00:20;;;;;;;37.72;34.30;;;6.40;85.70;;;;;;5034089;28;20227;-73
2022/01/18 09:02:48;;;;;;;39.17;35.65;;;6.40;86.10;;;;;;5034486;28;20221;-73
2022/01/18 09:05:15;;;;;;;36.65;33.05;;;6.50;86.30;;;;;;5033984;28;20193;-73
2022/01/18 09:07:42;;;;;;;37.85;34.55;;;6.50;86.30;;;;;;5034286;28;20292;-73
2022/01/18 09:10:12;;;;;;;37.05;33.58;;;6.40;86.00;;;;;;5033978;28;20221;-72
2022/01/18 09:12:39;;;;;;;38.08;34.55;;;6.50;86.10;;;;;;5034096;28;20566;-73
2022/01/18 09:15:08;;;;;;;38.17;34.13;;;6.60;85.40;;;;;;5033990;28;20201;-73
2022/01/18 09:17:35;;;;;;;37.83;34.05;;;6.60;86.20;;;;;;5033969;28;20205;-73
2022/01/18 09:20:06;;;;;;;36.83;33.17;;;6.70;86.20;;;;;;5033831;28;20312;-73
2022/01/18 09:22:34;;;;;;;37.17;33.88;;;6.90;86.60;;;;;;5034098;28;20244;-73
2022/01/18 09:25:02;;;;;;;40.72;36.70;;;6.80;85.20;;;;;;5033752;28;20209;-73
2022/01/18 09:27:31;;;;;;;38.65;35.05;;;6.60;85.50;;;;;;5033923;28;20263;-73
2022/01/18 09:29:58;;;;;;;39.00;35.60;;;6.60;86.10;;;;;;5033643;28;20227;-73
2022/01/18 09:32:25;;;;;;;40.95;37.15;;;6.70;86.20;;;;;;5033897;28;20237;-73
2022/01/18 09:34:52;;;;;;;39.92;35.95;;;6.80;86.70;;;;;;5033773;28;20259;-73
2022/01/18 09:37:19;;;;;;;40.15;36.40;;;7.10;85.90;;;;;;5033610;28;20296;-73
2022/01/18 09:39:47;;;;;;;40.03;36.42;;;7.10;84.40;;;;;;5033251;28;20857;-73
2022/01/18 09:42:14;;;;;;;39.80;36.03;;;7.20;84.40;;;;;;5033564;28;20197;-73
2022/01/18 09:44:42;;;;;;;40.88;37.08;;;7.30;84.10;;;;;;5033536;28;20659;-73
2022/01/18 09:47:09;;;;;;;39.30;35.78;;;7.40;83.80;;;;;;5033496;28;20280;-73
2022/01/18 09:49:36;;;;;;;37.92;34.60;;;7.40;83.70;;;;;;5033036;28;20232;-73
2022/01/18 09:52:04;;;;;;;37.75;34.40;;;7.40;82.50;;;;;;5033303;28;20213;-73
2022/01/18 09:54:31;;;;;;;38.22;34.70;;;7.40;82.60;;;;;;5033161;28;20288;-73
2022/01/18 09:56:58;;;;;;;36.70;33.70;;;7.50;84.20;;;;;;5033282;28;20197;-74
2022/01/18 09:59:25;;;;;;;38.55;35.00;;;7.60;84.60;;;;;;5033719;28;20260;-79
2022/01/18 10:01:53;;;;;;;37.80;34.50;;;7.60;83.60;;;;;;5034232;28;20288;-73
2022/01/18 10:04:22;;;;;;;37.65;34.25;;;7.80;83.30;;;;;;5033006;28;20280;-73
2022/01/18 10:06:55;;;;;;;38.90;35.45;;;7.90;82.10;;;;;;5033147;28;20326;-73
2022/01/18 10:09:23;;;;;;;39.00;35.42;;;8.00;81.20;;;;;;5032755;28;20703;-73
2022/01/18 10:12:07;;;;;;;39.20;35.50;;;8.10;80.60;;;;;;5032929;28;20193;-73
2022/01/18 10:14:35;;;;;;;39.70;35.83;;;7.80;80.90;;;;;;5033066;28;20270;-71
2022/01/18 10:17:04;;;;;;;35.95;32.80;;;7.60;81.30;;;;;;5032930;28;20552;-71
2022/01/18 10:19:32;;;;;;;36.38;33.28;;;7.60;81.40;;;;;;5032604;28;20217;-71
2022/01/18 10:22:13;;;;;;;36.25;32.83;;;7.60;81.10;;;;;;5032877;28;20243;-71
2022/01/18 10:24:41;;;;;;;33.78;30.48;;;7.70;81.50;;;;;;5032759;28;20192;-71
2022/01/18 10:27:10;;;;;;;35.33;32.13;;;7.60;80.60;;;;;;5032988;28;20193;-71
2022/01/18 10:29:39;;;;;;;34.95;31.88;;;7.50;80.30;;;;;;5032418;28;20228;-71
2022/01/18 10:32:15;;;;;;;34.35;31.55;;;7.10;80.90;;;;;;5032795;28;20197;-71
2022/01/18 10:37:29;;;;;;;38.90;35.50;;;7.20;81.50;;;;;;5031034;28;20192;-71
2022/01/18 10:39:58;;;;;;;36.63;33.00;;;7.20;81.50;;;;;;5032411;28;20579;-71
2022/01/18 10:42:30;;;;;;;36.42;33.25;;;7.30;81.30;;;;;;5032624;28;20201;-71
2022/01/18 10:45:02;;;;;;;34.92;31.80;;;7.40;80.60;;;;;;5032641;28;20304;-71
2022/01/18 10:47:31;;;;;;;34.08;31.13;;;7.30;80.30;;;;;;5032596;28;20203;-71
2022/01/18 10:50:08;;;;;;;33.28;30.63;;;7.20;80.30;;;;;;5032202;28;20304;-71
2022/01/18 10:52:35;;;;;;;34.33;31.38;;;7.30;79.80;;;;;;5032384;28;20204;-71
2022/01/18 10:55:02;;;;;;;35.75;32.55;;;7.60;79.10;;;;;;5032385;28;20327;-71
2022/01/18 10:57:31;;;;;;;35.75;32.58;;;7.50;80.10;;;;;;5032366;28;20251;-71
2022/01/18 10:59:59;;;;;;;36.17;32.97;;;7.50;79.30;;;;;;5031837;28;20220;-71
2022/01/18 11:02:26;;;;;;;37.05;33.95;;;7.40;79.60;;;;;;5032370;28;20204;-71
2022/01/18 11:04:56;;;;;;;37.88;34.40;;;7.40;79.70;;;;;;5032277;28;20200;-71
2022/01/18 11:07:26;;;;;;;36.58;33.05;;;7.50;80.10;;;;;;5032332;28;20236;-71
2022/01/18 11:09:53;;;;;;;35.80;32.58;;;7.60;79.30;;;;;;5032007;28;20227;-70
2022/01/18 11:12:24;;;;;;;36.67;33.38;;;7.70;78.90;;;;;;5032297;28;20662;-71
2022/01/18 11:15:02;;;;;;;35.78;31.98;;;7.80;78.50;;;;;;5032351;28;20205;-71
2022/01/18 11:17:38;;;;;;;38.20;34.90;;;7.80;78.20;;;;;;5032287;28;20651;-71
2022/01/18 11:20:09;;;;;;;32.95;29.95;;;7.80;79.20;;;;;;5031970;28;20702;-73
2022/01/18 11:22:36;;;;;;;34.78;31.88;;;7.80;78.60;;;;;;5032422;28;20197;-71
2022/01/18 11:25:08;;;;;;;35.65;32.65;;;7.90;78.00;;;;;;5032103;28;20559;-71
2022/01/18 11:27:36;;;;;;;34.45;31.55;;;7.80;78.50;;;;;;5032170;28;20230;-71
2022/01/18 11:30:06;;;;;;;33.65;30.50;;;7.80;78.30;;;;;;5031698;28;20233;-71
2022/01/18 11:32:33;;;;;;;32.70;30.15;;;7.70;77.90;;;;;;5032176;28;20198;-71
2022/01/18 11:35:11;;;;;;;31.45;28.67;;;7.70;78.10;;;;;;5032115;28;20201;-71
2022/01/18 11:37:46;;;;;;;31.77;29.23;;;7.50;78.80;;;;;;5032101;28;20212;-71
2022/01/18 11:40:15;;;;;;;34.22;31.40;;;7.60;78.00;;;;;;5031925;28;20299;-71
2022/01/18 11:42:50;;;;;;;32.83;30.08;;;7.50;78.30;;;;;;5031851;28;20201;-71
2022/01/18 11:45:31;;;;;;;30.58;28.02;;;7.50;78.30;;;;;;5032161;28;20196;-71
2022/01/18 11:48:06;;;;;;;36.33;33.35;;;7.40;78.50;;;;;;5033968;28;20284;-71
2022/01/18 11:50:37;;;;;;;30.70;28.45;;;7.50;79.20;;;;;;5035385;28;20252;-71
2022/01/18 11:53:37;;;;;;;31.30;28.85;;;7.60;78.70;;;;;;5035401;28;20547;-71
2022/01/18 11:56:04;;;;;;;34.20;31.05;;;7.60;78.40;;;;;;5035590;28;20220;-71
2022/01/18 11:58:32;;;;;;;30.55;28.23;;;7.60;78.10;;;;;;5035397;28;20272;-71
2022/01/18 12:01:01;;;;;;;31.95;29.38;;;7.80;77.70;;;;;;5035199;28;20218;-71
2022/01/18 12:03:29;;;;;;;30.58;28.13;;;8.00;76.10;;;;;;5035286;28;20713;-71
2022/01/18 12:05:59;;;;;;;28.35;26.30;;;7.90;76.10;;;;;;5035414;28;20220;-71
2022/01/18 12:08:38;;;;;;;30.35;27.85;;;8.00;76.00;;;;;;5035181;28;20203;-71
2022/01/18 12:11:07;;;;;;;33.10;30.13;;;8.20;78.10;;;;;;5035129;28;20777;-71
2022/01/18 12:13:36;;;;;;;28.80;26.67;;;8.30;75.70;;;;;;5035198;28;20738;-71
2022/01/18 12:16:11;;;;;;;29.05;27.08;;;8.40;72.60;;;;;;5035238;28;20550;-71
2022/01/18 12:18:51;;;;;;;30.98;28.38;;;8.40;73.00;;;;;;5035133;28;20565;-74
2022/01/18 12:21:22;;;;;;;30.40;28.20;;;8.30;74.40;;;;;;5035040;28;20304;-71
2022/01/18 12:23:49;;;;;;;30.95;28.27;;;8.20;75.90;;;;;;5035291;28;20193;-71
2022/01/18 12:26:33;;;;;;;31.10;28.65;;;7.90;77.30;;;;;;5035038;28;20204;-71
2022/01/18 12:35:00;;;;;;;31.60;29.00;;;7.40;78.80;;;;;;5034773;28;20299;-71
2022/01/18 12:37:48;;;;;;;29.38;26.63;;;7.30;79.60;;;;;;5034820;28;20203;-70
2022/01/18 12:40:33;;;;;;;28.67;26.40;;;7.40;79.50;;;;;;5034511;28;20272;-71
2022/01/18 12:45:57;;;;;;;28.35;26.35;;;7.30;80.30;;;;;;5034824;28;20208;-71
2022/01/18 12:48:24;;;;;;;28.92;26.52;;;7.20;80.40;;;;;;5034541;28;20194;-71
2022/01/18 12:50:55;;;;;;;27.23;25.10;;;7.30;79.30;;;;;;5034352;28;20259;-71
2022/01/18 12:53:25;;;;;;;27.95;25.85;;;7.30;79.60;;;;;;5034502;28;20346;-71
2022/01/18 12:55:55;;;;;;;31.05;28.65;;;7.40;78.90;;;;;;5034573;28;20201;-71
2022/01/18 12:58:24;;;;;;;27.35;25.05;;;7.40;79.00;;;;;;5034176;28;20201;-71
2022/01/18 13:00:54;;;;;;;29.13;26.58;;;7.30;79.40;;;;;;5033745;28;20240;-71
2022/01/18 13:03:23;;;;;;;25.98;24.05;;;7.40;79.50;;;;;;5034228;28;20197;-71
2022/01/18 13:05:53;;;;;;;28.58;26.58;;;7.40;79.30;;;;;;5034274;28;20201;-71
2022/01/18 13:08:23;;;;;;;26.27;24.15;;;7.30;79.40;;;;;;5034234;28;20201;-71
2022/01/18 13:10:52;;;;;;;26.50;24.50;;;7.20;78.50;;;;;;5033766;28;20686;-71
2022/01/18 13:13:22;;;;;;;25.23;23.58;;;7.20;78.20;;;;;;5034259;28;20283;-71
2022/01/18 13:22:54;;;;;;;27.00;25.40;;;7.20;78.00;;;;;;5034375;28;20208;-71
2022/01/18 13:27:26;;;;;;;25.15;23.55;;;7.50;76.60;;;;;;5033955;28;20208;-71
2022/01/18 13:29:58;;;;;;;25.75;24.15;;;7.50;76.80;;;;;;5033606;28;20282;-71
2022/01/18 13:32:29;;;;;;;26.50;24.70;;;7.60;76.60;;;;;;5033850;28;20201;-71
2022/01/18 13:34:59;;;;;;;25.83;24.17;;;7.80;76.30;;;;;;5033725;28;20197;-71
2022/01/18 13:37:27;;;;;;;26.35;24.60;;;7.80;75.90;;;;;;5033537;28;20205;-71
2022/01/18 13:39:58;;;;;;;26.70;24.80;;;7.50;76.90;;;;;;5033459;28;20263;-71
2022/01/18 13:42:30;;;;;;;24.40;22.55;;;7.40;78.20;;;;;;5033643;28;20197;-71
2022/01/18 13:45:27;;;;;;;24.67;23.05;;;7.50;76.80;;;;;;5033587;28;20197;-71
2022/01/18 13:48:02;;;;;;;24.95;23.10;;;7.60;75.80;;;;;;4972568;28;20291;-71
2022/01/18 13:50:41;;;;;;;24.67;23.05;;;7.60;76.10;;;;;;5022379;28;20225;-71
2022/01/18 13:53:12;;;;;;;25.42;23.73;;;7.50;76.10;;;;;;5033337;28;20629;-71